Portada
METAR-TAF:

METAR-TAF

Aeroports :

Aeroport de Sania Ramel

Tetuan, Marroc

latitud: 35-35N, longitud: 005-20W, altitud: 10 m

Observació

L'informe es va fer fa 10 minuts, a les 17:00 UTC
Vent 6 kt del Est/Nord-Est, variant entre Nord/Nord-Est i Est
Temperatura 24°C
Humitat 83%
Pressió 1017 hPa
Visibilitat: 8000 m

METAR: GMTN 181700Z 07006KT 020V100 8000 NSC 24/21 Q1017

Hora: 18:10 (17:10 UTC)


TAF: manca

Observacions i pronòstics meteorològics de més de 4000 aeroports (METAR i TAF).

Les estacions disponibles són els punts grocs i vermells al mapa.

Posi el ratolí al punt desitjat per veure el nom de l'estació.

Feu clic per veure les observacions i els pronòstics meteorològics.

Per canviar el mapa: feu clic els botons verds amb una creu de color negre per apropar; al botó verd amb un guió per allunyar la imatge; o en les fletxes verdes per a mapes adjacents.


METAR-TAF: